Time;durP1;ratioP1;P1;durP2;ratioP2;P2;SDS_P1;SDS_P2;PMS_P1;PMS_P2;Temp;Humidity;BMP_temperature;BMP_pressure;BME280_temperature;BME280_humidity;BME280_pressure;Samples;Min_cycle;Max_cycle;Signal;HPM_P1;HPM_P2
2022/11/26 00:01:20;;;;;;;33.88;9.30;;;8.70;99.90;;;;;;4996096;28;20235;-79
2022/11/26 00:03:46;;;;;;;17.63;7.25;;;8.70;99.90;;;;;;4999430;28;20188;-80
2022/11/26 00:06:39;;;;;;;15.68;8.05;;;8.70;99.90;;;;;;4999366;28;20184;-80
2022/11/26 00:09:12;;;;;;;24.38;8.13;;;8.70;99.90;;;;;;4981899;28;20203;-80
2022/11/26 00:11:38;;;;;;;22.65;8.30;;;8.80;99.90;;;;;;4999186;28;20188;-80
2022/11/26 00:14:15;;;;;;;44.42;9.80;;;8.70;99.90;;;;;;4982192;28;20204;-81
2022/11/26 00:16:41;;;;;;;25.20;9.25;;;8.70;99.90;;;;;;4999177;28;20164;-80
2022/11/26 00:19:07;;;;;;;18.90;8.93;;;8.70;99.90;;;;;;4999542;28;20189;-80
2022/11/26 00:21:36;;;;;;;37.50;9.35;;;8.80;99.90;;;;;;4981689;28;20180;-81
2022/11/26 00:24:03;;;;;;;25.40;8.85;;;8.80;99.90;;;;;;4981989;28;20638;-79
2022/11/26 00:26:29;;;;;;;18.70;8.52;;;8.70;99.90;;;;;;4982348;28;20530;-79
2022/11/26 00:28:58;;;;;;;34.80;9.55;;;8.70;99.90;;;;;;4999201;28;20169;-80
2022/11/26 00:31:25;;;;;;;25.10;8.38;;;8.70;99.90;;;;;;4999310;28;20161;-80
2022/11/26 00:33:50;;;;;;;26.88;8.63;;;8.70;99.90;;;;;;4999475;28;20192;-81
2022/11/26 00:36:31;;;;;;;28.83;9.23;;;8.70;99.90;;;;;;4998991;28;20173;-80
2022/11/26 00:39:05;;;;;;;33.30;9.38;;;8.60;99.90;;;;;;4999242;28;20168;-80
2022/11/26 00:41:34;;;;;;;36.47;8.95;;;8.70;99.90;;;;;;4999335;28;20638;-80
2022/11/26 00:44:00;;;;;;;27.90;8.82;;;8.70;99.90;;;;;;4999427;28;20180;-80
2022/11/26 00:46:25;;;;;;;18.38;8.68;;;8.70;99.90;;;;;;4999123;28;20644;-80
2022/11/26 00:48:51;;;;;;;20.17;8.60;;;8.60;99.90;;;;;;4999133;28;20196;-79
2022/11/26 00:51:25;;;;;;;35.53;8.52;;;8.70;99.90;;;;;;4981652;28;20204;-80
2022/11/26 00:53:54;;;;;;;33.13;8.75;;;8.60;99.90;;;;;;4999372;28;20288;-81
2022/11/26 00:56:20;;;;;;;15.05;7.05;;;8.40;99.90;;;;;;4999125;28;20173;-80
2022/11/26 00:58:47;;;;;;;17.20;8.93;;;8.40;99.90;;;;;;4998976;28;20245;-80
2022/11/26 01:01:17;;;;;;;26.58;8.15;;;8.20;99.90;;;;;;4999038;28;20165;-81
2022/11/26 01:03:43;;;;;;;29.60;9.02;;;8.20;99.90;;;;;;4998706;28;20184;-81
2022/11/26 01:06:20;;;;;;;26.70;8.27;;;8.20;99.90;;;;;;4998682;28;20635;-80
2022/11/26 01:08:45;;;;;;;17.15;7.85;;;8.10;99.90;;;;;;4998941;28;20173;-82
2022/11/26 01:11:14;;;;;;;23.45;8.52;;;8.10;99.90;;;;;;5000077;28;20513;-80
2022/11/26 01:13:41;;;;;;;25.75;8.30;;;7.90;99.90;;;;;;4982400;28;20173;-78
2022/11/26 01:16:19;;;;;;;18.33;7.13;;;7.90;99.90;;;;;;5013239;28;20177;-79
2022/11/26 01:18:46;;;;;;;28.92;8.48;;;7.90;99.90;;;;;;5000522;28;20177;-83
2022/11/26 01:21:11;;;;;;;25.55;7.75;;;7.80;99.90;;;;;;4978030;28;20189;-81
2022/11/26 01:23:37;;;;;;;21.35;7.75;;;7.70;99.90;;;;;;4978357;28;20260;-81
2022/11/26 01:26:03;;;;;;;40.08;7.50;;;7.90;99.90;;;;;;4978041;28;20177;-80
2022/11/26 01:28:28;;;;;;;22.02;7.18;;;7.90;99.90;;;;;;4995634;28;20185;-84
2022/11/26 01:30:54;;;;;;;18.50;7.13;;;7.80;99.90;;;;;;4995168;28;20231;-82
2022/11/26 01:33:19;;;;;;;23.73;7.60;;;7.80;99.90;;;;;;4995036;28;20169;-81
2022/11/26 01:35:45;;;;;;;28.48;7.68;;;7.90;99.90;;;;;;4995133;28;20209;-82
2022/11/26 01:38:14;;;;;;;19.08;6.90;;;7.80;99.90;;;;;;4995282;28;20169;-81
2022/11/26 01:40:57;;;;;;;33.15;8.80;;;7.90;99.90;;;;;;4995375;28;20189;-81
2022/11/26 01:43:39;;;;;;;44.97;7.78;;;8.10;99.90;;;;;;4995423;28;20543;-81
2022/11/26 01:46:15;;;;;;;31.40;8.20;;;8.10;99.90;;;;;;4995686;28;20260;-83
2022/11/26 01:48:41;;;;;;;32.90;7.32;;;8.10;99.90;;;;;;4977753;28;20324;-82
2022/11/26 01:51:08;;;;;;;26.27;6.22;;;8.00;99.90;;;;;;4995178;28;20189;-82
2022/11/26 01:53:40;;;;;;;23.63;7.38;;;8.00;99.90;;;;;;4995072;28;20161;-81
2022/11/26 01:56:26;;;;;;;18.58;6.55;;;8.10;99.90;;;;;;4977812;28;20223;-82
2022/11/26 01:59:19;;;;;;;19.25;6.35;;;8.30;99.90;;;;;;4970269;28;20188;-81
2022/11/26 02:01:46;;;;;;;17.35;7.55;;;8.30;99.90;;;;;;4995055;28;20169;-82
2022/11/26 02:04:12;;;;;;;33.75;7.95;;;8.10;99.90;;;;;;4994839;28;20189;-81
2022/11/26 02:06:38;;;;;;;17.42;6.82;;;7.90;99.90;;;;;;4995054;28;20525;-81
2022/11/26 02:09:07;;;;;;;19.15;7.40;;;7.80;99.90;;;;;;4994875;28;20169;-81
2022/11/26 02:11:33;;;;;;;15.23;6.70;;;7.90;99.90;;;;;;4994929;28;20165;-82
2022/11/26 02:14:05;;;;;;;19.88;6.68;;;7.80;99.90;;;;;;4994800;28;20206;-82
2022/11/26 02:16:48;;;;;;;29.70;6.55;;;7.60;99.90;;;;;;4994577;28;20185;-81
2022/11/26 02:19:46;;;;;;;15.35;6.28;;;7.70;99.90;;;;;;4994370;28;20284;-80
2022/11/26 02:22:40;;;;;;;15.13;6.40;;;7.70;99.90;;;;;;4994639;28;20181;-82
2022/11/26 02:25:22;;;;;;;26.48;7.53;;;7.60;99.90;;;;;;4994121;28;20191;-81
2022/11/26 02:27:48;;;;;;;23.10;6.38;;;7.60;99.90;;;;;;4994360;28;20173;-80
2022/11/26 02:30:15;;;;;;;28.02;5.75;;;7.80;99.90;;;;;;4994270;28;20554;-81
2022/11/26 02:33:02;;;;;;;18.58;6.80;;;8.00;99.90;;;;;;4994419;28;20184;-82
2022/11/26 02:35:48;;;;;;;24.50;6.90;;;8.00;99.90;;;;;;4994427;28;20295;-80
2022/11/26 02:38:23;;;;;;;17.10;6.45;;;8.00;99.90;;;;;;4977148;28;20637;-81
2022/11/26 02:40:50;;;;;;;22.85;6.53;;;7.90;99.90;;;;;;4994429;28;20704;-81
2022/11/26 02:43:17;;;;;;;22.05;6.78;;;7.90;99.90;;;;;;4994696;28;20201;-80
2022/11/26 02:45:48;;;;;;;24.02;5.80;;;7.90;99.90;;;;;;4994319;28;20169;-81
2022/11/26 02:48:22;;;;;;;16.95;6.25;;;7.90;99.90;;;;;;4976833;28;20248;-84
2022/11/26 02:50:53;;;;;;;20.45;6.38;;;7.90;99.90;;;;;;4993963;28;20192;-80
2022/11/26 02:53:22;;;;;;;25.02;6.97;;;8.00;99.90;;;;;;4994306;28;20193;-81
2022/11/26 02:55:53;;;;;;;21.25;5.90;;;8.10;99.90;;;;;;4976347;28;20278;-81
2022/11/26 02:58:19;;;;;;;25.95;6.47;;;8.10;99.90;;;;;;4993859;28;20184;-79
2022/11/26 03:00:47;;;;;;;28.77;7.32;;;8.10;99.90;;;;;;4993910;28;20185;-80
2022/11/26 03:03:22;;;;;;;21.98;5.88;;;8.10;99.90;;;;;;5011325;23;20269;-77
2022/11/26 03:05:52;;;;;;;16.13;5.30;;;8.20;99.90;;;;;;5012544;28;20545;-77
2022/11/26 03:08:18;;;;;;;20.48;6.78;;;8.20;99.90;;;;;;5011932;28;20248;-78
2022/11/26 03:10:43;;;;;;;25.13;6.90;;;8.10;99.90;;;;;;5013014;28;20268;-77
2022/11/26 03:13:09;;;;;;;23.13;6.35;;;8.10;99.90;;;;;;5013224;28;20183;-77
2022/11/26 03:15:34;;;;;;;31.38;6.78;;;8.00;99.90;;;;;;5013016;28;20552;-78
2022/11/26 03:18:00;;;;;;;15.40;6.43;;;8.00;99.90;;;;;;5012669;28;20173;-77
2022/11/26 03:20:26;;;;;;;20.48;5.50;;;7.90;99.90;;;;;;5011969;28;20239;-77
2022/11/26 03:22:51;;;;;;;17.92;5.55;;;8.00;99.90;;;;;;5012977;28;20196;-78
2022/11/26 03:25:17;;;;;;;9.38;5.30;;;8.00;99.90;;;;;;5013350;28;20626;-78
2022/11/26 03:27:43;;;;;;;26.23;5.18;;;8.00;99.90;;;;;;5013237;28;20169;-77
2022/11/26 03:30:09;;;;;;;21.70;6.00;;;8.00;99.90;;;;;;5012924;28;20192;-78
2022/11/26 03:32:35;;;;;;;12.48;5.82;;;8.10;99.90;;;;;;5011276;28;20208;-77
2022/11/26 03:35:00;;;;;;;25.85;6.07;;;7.80;99.90;;;;;;5010725;28;20585;-77
2022/11/26 03:37:26;;;;;;;21.25;5.78;;;7.70;99.90;;;;;;5010867;28;20169;-78
2022/11/26 03:39:52;;;;;;;14.48;6.18;;;7.60;99.90;;;;;;5009933;28;20192;-78
2022/11/26 03:42:17;;;;;;;17.17;5.63;;;7.60;99.90;;;;;;5011165;28;20160;-77
2022/11/26 03:44:43;;;;;;;18.88;5.80;;;7.60;99.90;;;;;;5011719;28;20186;-77
2022/11/26 03:47:08;;;;;;;18.88;5.75;;;7.70;99.90;;;;;;5013132;28;20161;-78
2022/11/26 03:49:34;;;;;;;22.40;6.32;;;7.70;99.90;;;;;;5012756;28;20699;-77
2022/11/26 03:51:59;;;;;;;16.88;6.03;;;7.70;99.90;;;;;;5012846;28;20207;-77
2022/11/26 03:54:25;;;;;;;22.83;6.07;;;7.70;99.90;;;;;;5011326;28;20211;-78
2022/11/26 03:56:51;;;;;;;28.63;6.57;;;7.70;99.90;;;;;;5012915;28;20180;-78
2022/11/26 03:59:16;;;;;;;22.98;5.75;;;7.70;99.90;;;;;;5012662;28;20199;-78
2022/11/26 04:01:42;;;;;;;34.25;6.43;;;7.70;99.90;;;;;;5012723;28;20200;-77
2022/11/26 04:04:07;;;;;;;19.95;4.57;;;7.80;99.90;;;;;;5012604;28;20192;-77
2022/11/26 04:06:33;;;;;;;14.00;5.00;;;7.80;99.90;;;;;;5012817;28;20161;-78
2022/11/26 04:08:58;;;;;;;21.25;5.63;;;7.80;99.90;;;;;;5013259;28;20172;-78
2022/11/26 04:11:24;;;;;;;22.98;5.32;;;7.90;99.90;;;;;;5012682;28;20251;-78
2022/11/26 04:13:50;;;;;;;28.77;6.90;;;7.90;99.90;;;;;;5012388;28;20172;-77
2022/11/26 04:16:15;;;;;;;13.30;5.43;;;7.90;99.90;;;;;;5012468;28;20179;-77
2022/11/26 04:18:41;;;;;;;28.27;6.10;;;7.80;99.90;;;;;;5012679;28;20164;-78
2022/11/26 04:21:07;;;;;;;19.15;3.78;;;7.90;99.90;;;;;;5012509;28;20216;-77
2022/11/26 04:23:33;;;;;;;18.02;4.28;;;8.00;99.90;;;;;;5012656;28;20167;-78
2022/11/26 04:25:59;;;;;;;12.93;4.50;;;7.90;99.90;;;;;;5012487;28;20509;-78
2022/11/26 04:28:25;;;;;;;8.23;4.32;;;7.90;99.90;;;;;;5012832;28;20227;-78
2022/11/26 04:30:50;;;;;;;10.55;4.68;;;7.90;99.90;;;;;;5012355;28;20184;-77
2022/11/26 04:33:16;;;;;;;25.35;5.60;;;7.80;99.90;;;;;;5012641;28;20165;-78
2022/11/26 04:35:42;;;;;;;16.75;4.72;;;7.80;99.90;;;;;;5012389;28;20287;-77
2022/11/26 04:38:07;;;;;;;16.45;4.70;;;7.90;99.90;;;;;;5012317;28;20168;-77
2022/11/26 04:40:33;;;;;;;11.00;5.05;;;8.00;99.90;;;;;;5012636;28;20193;-78
2022/11/26 04:42:58;;;;;;;14.30;4.95;;;7.90;99.90;;;;;;5012999;28;20169;-78
2022/11/26 04:45:24;;;;;;;26.95;4.90;;;7.90;99.90;;;;;;5012353;28;20176;-77
2022/11/26 04:47:50;;;;;;;21.38;4.93;;;8.00;99.90;;;;;;5013346;28;20267;-77
2022/11/26 04:50:15;;;;;;;13.50;4.82;;;8.10;99.90;;;;;;5015756;28;20192;-78
2022/11/26 04:52:41;;;;;;;18.25;4.70;;;8.00;99.90;;;;;;5015852;28;20256;-77
2022/11/26 04:55:07;;;;;;;22.88;4.15;;;8.00;99.90;;;;;;5016216;28;20220;-78
2022/11/26 04:57:33;;;;;;;14.75;4.47;;;8.00;99.90;;;;;;5015997;28;20191;-78
2022/11/26 04:59:58;;;;;;;13.60;4.43;;;8.10;99.90;;;;;;5015649;28;20180;-78
2022/11/26 05:02:24;;;;;;;25.88;5.40;;;7.90;99.90;;;;;;5015654;28;20569;-77
2022/11/26 05:04:49;;;;;;;7.38;4.03;;;8.00;99.90;;;;;;5015591;28;20287;-77
2022/11/26 05:07:15;;;;;;;16.98;5.05;;;8.00;99.90;;;;;;5015715;28;20593;-78
2022/11/26 05:09:41;;;;;;;14.57;5.18;;;7.80;99.90;;;;;;5015674;28;20204;-78
2022/11/26 05:12:06;;;;;;;20.85;5.28;;;7.80;99.90;;;;;;5015614;28;20214;-78
2022/11/26 05:14:32;;;;;;;17.20;4.75;;;7.70;99.90;;;;;;5014025;28;20594;-77
2022/11/26 05:16:57;;;;;;;20.98;5.40;;;7.70;99.90;;;;;;5015624;28;20164;-78
2022/11/26 05:19:23;;;;;;;18.75;4.95;;;7.70;99.90;;;;;;5015443;28;20194;-77
2022/11/26 05:21:49;;;;;;;23.23;4.85;;;7.70;99.90;;;;;;5015559;28;20255;-78
2022/11/26 05:24:14;;;;;;;16.20;4.80;;;7.60;99.90;;;;;;5015363;28;20676;-77
2022/11/26 05:26:40;;;;;;;22.95;5.30;;;7.50;99.90;;;;;;5015519;28;20165;-78
2022/11/26 05:29:05;;;;;;;17.05;4.85;;;7.50;99.90;;;;;;5015229;28;21561;-77
2022/11/26 05:31:31;;;;;;;18.63;4.65;;;7.50;99.90;;;;;;5013939;28;20199;-80
2022/11/26 05:33:56;;;;;;;12.00;4.90;;;7.70;99.90;;;;;;5014958;28;20163;-78
2022/11/26 05:36:22;;;;;;;28.33;5.13;;;7.80;99.90;;;;;;5014962;28;20189;-78
2022/11/26 05:38:48;;;;;;;15.48;4.38;;;7.70;99.90;;;;;;5015064;28;20533;-77
2022/11/26 05:41:13;;;;;;;24.60;5.65;;;7.90;99.90;;;;;;5015149;28;20169;-78
2022/11/26 05:43:39;;;;;;;19.75;5.30;;;7.70;99.90;;;;;;5014996;28;20211;-78
2022/11/26 05:46:08;;;;;;;23.80;5.65;;;7.60;99.90;;;;;;5014754;28;20198;-77
2022/11/26 05:48:34;;;;;;;15.93;4.78;;;7.90;99.90;;;;;;5015003;28;20165;-77
2022/11/26 05:51:01;;;;;;;15.18;4.13;;;8.00;99.90;;;;;;5014907;28;20523;-78
2022/11/26 05:53:26;;;;;;;26.40;4.75;;;7.90;99.90;;;;;;5014645;28;20244;-78
2022/11/26 05:55:52;;;;;;;29.88;5.38;;;7.70;99.90;;;;;;5014718;28;20294;-78
2022/11/26 05:58:18;;;;;;;15.23;4.70;;;7.80;99.90;;;;;;5014197;28;20161;-77
2022/11/26 06:00:43;;;;;;;16.40;5.00;;;7.90;99.90;;;;;;5014617;28;20188;-77
2022/11/26 06:03:09;;;;;;;15.32;4.55;;;7.90;99.90;;;;;;5014379;28;20196;-77
2022/11/26 06:05:35;;;;;;;15.48;4.55;;;7.90;99.90;;;;;;5014309;28;20181;-78
2022/11/26 06:08:00;;;;;;;17.85;4.65;;;7.90;99.90;;;;;;5014478;28;20184;-78
2022/11/26 06:10:26;;;;;;;16.90;5.00;;;7.90;99.90;;;;;;5014435;28;20319;-77
2022/11/26 06:12:51;;;;;;;23.02;5.28;;;7.90;99.90;;;;;;5014489;28;20532;-77
2022/11/26 06:15:17;;;;;;;29.00;5.65;;;7.90;99.90;;;;;;5013723;28;20228;-77
2022/11/26 06:17:43;;;;;;;20.67;5.10;;;7.90;99.90;;;;;;5013156;28;20177;-77
2022/11/26 06:20:09;;;;;;;18.45;5.10;;;8.00;99.90;;;;;;5014171;28;20650;-78
2022/11/26 06:22:39;;;;;;;20.42;5.43;;;8.10;99.90;;;;;;5012863;28;20518;-77
2022/11/26 06:25:06;;;;;;;33.00;5.07;;;8.10;99.90;;;;;;5014304;28;20315;-77
2022/11/26 06:27:32;;;;;;;18.48;4.35;;;7.80;99.90;;;;;;5014207;28;20641;-78
2022/11/26 06:29:58;;;;;;;21.08;5.18;;;8.00;99.90;;;;;;5013802;28;20715;-78
2022/11/26 06:32:23;;;;;;;32.72;5.32;;;8.00;99.90;;;;;;5013978;28;20164;-82
2022/11/26 06:34:49;;;;;;;16.33;5.55;;;7.90;99.90;;;;;;5013715;28;20699;-79
2022/11/26 06:37:15;;;;;;;20.45;5.05;;;7.80;99.90;;;;;;5011954;28;20180;-77
2022/11/26 06:39:40;;;;;;;13.73;5.28;;;7.90;99.90;;;;;;5012883;28;20192;-77
2022/11/26 06:42:06;;;;;;;14.02;5.40;;;7.90;99.90;;;;;;5013621;28;20645;-77
2022/11/26 06:44:34;;;;;;;22.88;6.10;;;7.80;99.90;;;;;;5013664;28;20272;-78
2022/11/26 06:47:00;;;;;;;14.80;5.22;;;7.80;99.90;;;;;;5013776;28;20167;-78
2022/11/26 06:49:26;;;;;;;24.60;6.10;;;7.80;99.90;;;;;;5011916;28;20283;-77
2022/11/26 06:51:52;;;;;;;26.17;5.35;;;7.70;99.90;;;;;;5013109;28;20199;-78
2022/11/26 06:54:17;;;;;;;18.83;4.60;;;7.80;99.90;;;;;;5013443;28;20200;-78
2022/11/26 06:56:43;;;;;;;19.35;5.00;;;7.90;99.90;;;;;;5028841;28;20187;-77
2022/11/26 06:59:09;;;;;;;15.90;4.78;;;7.90;99.90;;;;;;5014087;28;20207;-78
2022/11/26 07:01:34;;;;;;;21.23;5.68;;;8.00;99.90;;;;;;5015599;28;20161;-80
2022/11/26 07:04:00;;;;;;;26.52;6.90;;;7.90;99.90;;;;;;5016196;28;20539;-81
2022/11/26 07:06:28;;;;;;;19.88;4.85;;;7.90;99.90;;;;;;5013781;28;20167;-78
2022/11/26 07:08:55;;;;;;;13.95;4.85;;;7.90;99.90;;;;;;5013737;28;20164;-79
2022/11/26 07:11:22;;;;;;;9.32;4.38;;;7.90;99.90;;;;;;5012499;28;20173;-78
2022/11/26 07:13:48;;;;;;;21.73;5.43;;;7.80;99.90;;;;;;5014800;28;20551;-95
2022/11/26 07:16:14;;;;;;;38.20;6.78;;;7.80;99.90;;;;;;5023562;28;20163;-95
2022/11/26 07:18:40;;;;;;;21.10;4.45;;;7.70;99.90;;;;;;5021486;28;20637;-91
2022/11/26 07:21:10;;;;;;;11.95;4.65;;;7.70;99.90;;;;;;5022756;28;20195;-93
2022/11/26 07:23:36;;;;;;;13.30;4.57;;;7.80;99.90;;;;;;5016551;28;20578;-94
2022/11/26 07:26:02;;;;;;;22.10;5.25;;;8.00;99.90;;;;;;5016645;28;20644;-94
2022/11/26 07:28:28;;;;;;;18.55;5.30;;;7.90;99.90;;;;;;5015889;28;20169;-78
2022/11/26 07:30:54;;;;;;;12.95;4.30;;;7.90;99.90;;;;;;5014598;28;20184;-84
2022/11/26 07:33:20;;;;;;;7.47;4.55;;;8.00;99.90;;;;;;5017713;28;20167;-78
2022/11/26 07:35:45;;;;;;;14.75;4.32;;;7.90;99.90;;;;;;5016345;28;20239;-84
2022/11/26 07:38:11;;;;;;;14.85;4.47;;;7.90;99.90;;;;;;5022079;28;20176;-85
2022/11/26 07:40:36;;;;;;;18.55;4.70;;;7.90;99.90;;;;;;5020623;28;20222;-87
2022/11/26 07:43:02;;;;;;;14.85;4.82;;;8.00;99.90;;;;;;5015290;28;20176;-80
2022/11/26 07:45:27;;;;;;;19.80;4.47;;;8.10;99.90;;;;;;5021758;28;20256;-84
2022/11/26 07:47:53;;;;;;;10.95;4.43;;;8.10;99.90;;;;;;5020411;28;20218;-78
2022/11/26 07:50:18;;;;;;;24.88;4.70;;;8.20;99.90;;;;;;5018572;28;20189;-79
2022/11/26 07:52:44;;;;;;;21.33;5.57;;;8.40;99.90;;;;;;5017476;28;20168;-81
2022/11/26 07:55:10;;;;;;;17.52;4.88;;;8.50;99.90;;;;;;5018408;28;20204;-78
2022/11/26 07:57:35;;;;;;;18.67;4.97;;;8.60;99.90;;;;;;5025548;28;20164;-89
2022/11/26 08:00:01;;;;;;;17.50;5.38;;;8.70;99.90;;;;;;5022635;28;20188;-81
2022/11/26 08:02:26;;;;;;;20.23;5.43;;;8.70;99.90;;;;;;5017814;28;20638;-81
2022/11/26 08:04:52;;;;;;;14.02;6.35;;;8.60;99.90;;;;;;5017365;28;20668;-79
2022/11/26 08:07:17;;;;;;;31.35;6.85;;;8.90;99.90;;;;;;5017159;28;20176;-78
2022/11/26 08:09:43;;;;;;;14.32;5.63;;;8.90;99.90;;;;;;5015232;28;20189;-91
2022/11/26 08:12:08;;;;;;;22.40;5.32;;;8.80;99.90;;;;;;5013522;28;20164;-78
2022/11/26 08:14:34;;;;;;;14.90;4.88;;;8.80;99.90;;;;;;5012892;28;20211;-78
2022/11/26 08:17:00;;;;;;;23.70;5.30;;;8.60;99.90;;;;;;5013960;28;20210;-82
2022/11/26 08:19:25;;;;;;;12.07;3.97;;;8.60;99.90;;;;;;5011691;28;20715;-79
2022/11/26 08:21:51;;;;;;;19.23;5.10;;;8.80;99.90;;;;;;5009805;28;20638;-78
2022/11/26 08:24:18;;;;;;;14.10;4.82;;;8.80;99.90;;;;;;5006743;28;20239;-77
2022/11/26 08:26:45;;;;;;;17.38;5.45;;;8.90;99.90;;;;;;5006817;28;20537;-77
2022/11/26 08:29:12;;;;;;;22.25;5.05;;;8.90;99.90;;;;;;4996535;28;20187;-77
2022/11/26 08:31:40;;;;;;;18.63;5.50;;;9.00;99.90;;;;;;4996362;28;20193;-77
2022/11/26 08:34:06;;;;;;;18.88;5.88;;;9.20;99.90;;;;;;4996306;28;20203;-77
2022/11/26 08:36:32;;;;;;;15.70;4.75;;;9.30;99.90;;;;;;4994898;28;20224;-77
2022/11/26 08:38:58;;;;;;;26.70;4.35;;;9.40;99.90;;;;;;4996029;28;20586;-77
2022/11/26 08:41:25;;;;;;;21.55;5.22;;;9.30;99.90;;;;;;4994860;28;20530;-77
2022/11/26 08:43:50;;;;;;;21.38;5.45;;;9.40;99.90;;;;;;4994901;28;20533;-79
2022/11/26 08:46:16;;;;;;;21.85;5.32;;;9.30;99.90;;;;;;4995739;28;20173;-78
2022/11/26 08:48:42;;;;;;;19.98;5.32;;;9.30;99.90;;;;;;5001343;28;20530;-78
2022/11/26 08:51:11;;;;;;;15.55;4.97;;;9.30;99.90;;;;;;4995804;28;20227;-78
2022/11/26 08:53:37;;;;;;;22.38;5.97;;;9.20;99.90;;;;;;4995863;28;20173;-78
2022/11/26 08:56:05;;;;;;;18.33;5.00;;;9.40;99.90;;;;;;4995771;28;20216;-79
2022/11/26 08:58:36;;;;;;;22.67;6.10;;;9.40;99.90;;;;;;4996284;28;20322;-82
2022/11/26 09:01:31;;;;;;;20.67;5.40;;;9.50;99.90;;;;;;4994360;28;20264;-78
2022/11/26 09:03:58;;;;;;;20.10;5.35;;;9.60;99.90;;;;;;5011149;23;20250;-79
2022/11/26 09:06:27;;;;;;;16.17;4.43;;;9.50;99.90;;;;;;5035629;28;20173;-79
2022/11/26 09:09:11;;;;;;;14.35;5.10;;;9.50;99.90;;;;;;5029013;28;20510;-80
2022/11/26 09:11:58;;;;;;;20.30;4.57;;;9.70;99.90;;;;;;5004677;28;20222;-79
2022/11/26 09:14:30;;;;;;;20.13;5.22;;;9.80;99.90;;;;;;5028115;28;20196;-78
2022/11/26 09:16:58;;;;;;;23.55;5.68;;;10.00;99.90;;;;;;5008085;28;20177;-78
2022/11/26 09:19:25;;;;;;;15.38;3.45;;;10.00;99.90;;;;;;5011404;28;20189;-81
2022/11/26 09:21:51;;;;;;;18.00;4.90;;;10.20;99.90;;;;;;5024424;28;20180;-82
2022/11/26 09:24:21;;;;;;;16.63;4.25;;;10.30;99.90;;;;;;5021969;28;20199;-79
2022/11/26 09:26:48;;;;;;;12.45;4.50;;;10.20;99.90;;;;;;5022977;28;20165;-79
2022/11/26 09:29:23;;;;;;;23.35;5.53;;;10.30;99.90;;;;;;5005674;28;20200;-79
2022/11/26 09:31:50;;;;;;;12.77;4.32;;;10.30;99.90;;;;;;5006268;28;20255;-80
2022/11/26 09:34:16;;;;;;;16.75;4.63;;;10.20;99.90;;;;;;5005653;28;20227;-82
2022/11/26 09:36:42;;;;;;;24.15;5.35;;;10.10;99.90;;;;;;5023198;28;20612;-79
2022/11/26 09:39:12;;;;;;;32.15;5.68;;;9.90;99.90;;;;;;5004158;28;20197;-79
2022/11/26 09:42:28;;;;;;;35.38;7.22;;;10.00;99.90;;;;;;5004912;28;20169;-81
2022/11/26 09:45:01;;;;;;;20.63;6.82;;;10.10;99.90;;;;;;4962159;29;20175;-79
2022/11/26 09:47:36;;;;;;;21.75;7.75;;;9.90;99.90;;;;;;4962055;29;20171;-79
2022/11/26 09:50:12;;;;;;;15.93;7.20;;;10.00;99.90;;;;;;5001216;28;20223;-79
2022/11/26 09:53:21;;;;;;;10.77;4.13;;;10.00;99.90;;;;;;5023265;28;20196;-78
2022/11/26 09:55:50;;;;;;;25.92;5.05;;;9.90;99.90;;;;;;5014804;28;20216;-79
2022/11/26 09:58:22;;;;;;;24.45;5.40;;;9.80;99.90;;;;;;5021235;28;20176;-80
2022/11/26 10:00:50;;;;;;;21.85;4.03;;;9.90;99.90;;;;;;5020370;28;20316;-79
2022/11/26 10:03:21;;;;;;;18.58;3.65;;;9.80;99.90;;;;;;5020574;28;20161;-80
2022/11/26 10:06:15;;;;;;;28.38;4.82;;;10.00;99.90;;;;;;5004551;28;20184;-79
2022/11/26 10:08:59;;;;;;;17.75;4.15;;;9.90;99.90;;;;;;5020016;28;20252;-78
2022/11/26 10:12:01;;;;;;;13.95;3.63;;;10.00;99.90;;;;;;5020183;28;20707;-78
2022/11/26 10:14:58;;;;;;;18.35;3.90;;;10.00;99.90;;;;;;5016971;28;20196;-80
2022/11/26 10:17:38;;;;;;;17.20;4.05;;;9.90;99.90;;;;;;5017599;28;20195;-80
2022/11/26 10:20:25;;;;;;;19.15;4.28;;;9.90;99.90;;;;;;5023703;28;20279;-79
2022/11/26 10:22:58;;;;;;;10.30;3.40;;;10.10;99.90;;;;;;5001732;28;20181;-80
2022/11/26 10:25:27;;;;;;;15.68;4.88;;;10.20;99.90;;;;;;5016681;28;20636;-79
2022/11/26 10:27:55;;;;;;;28.48;4.30;;;10.30;99.90;;;;;;4998865;28;20177;-79
2022/11/26 10:30:26;;;;;;;11.35;3.83;;;10.40;99.90;;;;;;4998808;28;20192;-79
2022/11/26 10:32:54;;;;;;;14.30;3.80;;;10.50;99.90;;;;;;5015767;28;20244;-78
2022/11/26 10:35:23;;;;;;;11.40;3.58;;;10.60;99.90;;;;;;5016816;28;20718;-79
2022/11/26 10:37:50;;;;;;;20.77;5.00;;;10.50;99.90;;;;;;5000074;28;20172;-79
2022/11/26 10:40:25;;;;;;;31.67;5.57;;;10.70;99.90;;;;;;5016114;28;20696;-80
2022/11/26 10:43:22;;;;;;;12.75;4.38;;;10.80;99.90;;;;;;5016216;28;20172;-78
2022/11/26 10:45:51;;;;;;;17.15;3.63;;;10.80;99.90;;;;;;5003668;28;20176;-78
2022/11/26 10:48:31;;;;;;;13.85;3.97;;;10.80;99.90;;;;;;5016717;28;20161;-79
2022/11/26 10:51:05;;;;;;;13.73;4.22;;;10.90;99.90;;;;;;5014755;28;20188;-79
2022/11/26 10:53:51;;;;;;;15.85;4.20;;;11.00;99.90;;;;;;5014401;28;20169;-80
2022/11/26 10:56:20;;;;;;;10.18;4.30;;;11.10;99.90;;;;;;5014880;28;20184;-80
2022/11/26 10:58:47;;;;;;;12.27;3.45;;;11.00;99.90;;;;;;5013872;28;20182;-80
2022/11/26 11:01:14;;;;;;;15.02;3.35;;;11.00;99.90;;;;;;5020654;28;20164;-78
2022/11/26 11:03:57;;;;;;;19.90;4.35;;;11.10;99.90;;;;;;5002950;28;20176;-79
2022/11/26 11:06:40;;;;;;;12.88;3.90;;;11.10;99.90;;;;;;5018259;28;20173;-81
2022/11/26 11:09:35;;;;;;;12.82;5.47;;;11.30;99.90;;;;;;5015563;28;20566;-80
2022/11/26 11:12:18;;;;;;;24.60;5.88;;;11.50;99.90;;;;;;5015011;28;20217;-79
2022/11/26 11:14:44;;;;;;;8.25;3.05;;;11.40;99.90;;;;;;4996779;28;20625;-80
2022/11/26 11:17:38;;;;;;;21.60;3.78;;;11.30;99.90;;;;;;4981174;28;20177;-81
2022/11/26 11:20:30;;;;;;;15.15;3.75;;;11.40;99.90;;;;;;4996992;28;20251;-80
2022/11/26 11:22:59;;;;;;;14.63;4.13;;;11.50;99.90;;;;;;4996609;28;20617;-80
2022/11/26 11:25:30;;;;;;;8.20;3.38;;;11.40;99.90;;;;;;5014890;28;20179;-79
2022/11/26 11:28:02;;;;;;;14.80;4.07;;;11.30;99.90;;;;;;5014581;28;21156;-80
2022/11/26 11:30:31;;;;;;;16.60;4.07;;;11.20;99.90;;;;;;4997003;28;20199;-79
2022/11/26 11:33:16;;;;;;;12.60;3.42;;;11.10;99.90;;;;;;5014053;28;20251;-81
2022/11/26 11:35:42;;;;;;;20.42;3.45;;;11.10;99.90;;;;;;5005965;28;20263;-80
2022/11/26 11:38:22;;;;;;;8.07;2.95;;;11.20;99.90;;;;;;5005122;28;20168;-80
2022/11/26 11:40:48;;;;;;;17.55;2.83;;;11.40;99.90;;;;;;4995858;28;20661;-80
2022/11/26 11:43:16;;;;;;;12.88;4.00;;;11.50;99.90;;;;;;5015067;28;20188;-80
2022/11/26 11:46:00;;;;;;;13.95;3.90;;;11.50;99.90;;;;;;5023177;28;20502;-81
2022/11/26 11:48:52;;;;;;;10.05;4.25;;;11.70;99.90;;;;;;5030598;28;20176;-83
2022/11/26 11:51:49;;;;;;;20.30;3.75;;;11.70;99.90;;;;;;5017830;28;20161;-80
2022/11/26 11:54:34;;;;;;;21.15;4.25;;;11.50;99.90;;;;;;4998639;28;20207;-85
2022/11/26 11:57:27;;;;;;;20.25;3.70;;;11.70;99.90;;;;;;4999181;28;20187;-79
2022/11/26 12:03:32;;;;;;;18.98;3.35;;;12.10;99.90;;;;;;4999899;28;20216;-79
2022/11/26 12:06:13;;;;;;;20.67;3.60;;;12.20;99.90;;;;;;5011710;28;20392;-79
2022/11/26 12:08:50;;;;;;;12.93;3.40;;;12.10;99.90;;;;;;5012861;28;20230;-79
2022/11/26 12:11:30;;;;;;;14.63;4.05;;;12.20;99.90;;;;;;5012794;28;20164;-81
2022/11/26 12:14:19;;;;;;;16.55;4.30;;;12.10;99.90;;;;;;5012689;28;20528;-79
2022/11/26 12:16:49;;;;;;;19.20;3.53;;;12.00;99.90;;;;;;5012857;28;20184;-79
2022/11/26 12:19:40;;;;;;;19.73;4.28;;;12.20;99.90;;;;;;4995041;28;20192;-79
2022/11/26 12:22:22;;;;;;;11.02;4.15;;;12.20;99.90;;;;;;5013226;28;20168;-79
2022/11/26 12:25:13;;;;;;;10.68;3.33;;;12.10;99.90;;;;;;5013112;28;20243;-79
2022/11/26 12:28:00;;;;;;;16.45;3.17;;;12.00;99.90;;;;;;5015038;28;20243;-79
2022/11/26 12:30:48;;;;;;;14.38;3.33;;;11.80;99.90;;;;;;5014097;28;20645;-80
2022/11/26 12:33:30;;;;;;;21.15;4.22;;;11.70;99.90;;;;;;5013141;28;20227;-79
2022/11/26 12:35:59;;;;;;;13.50;3.28;;;11.80;99.90;;;;;;5011967;28;20266;-79
2022/11/26 12:38:33;;;;;;;28.05;3.78;;;11.70;99.90;;;;;;5012091;28;20184;-80
2022/11/26 12:40:59;;;;;;;12.88;3.15;;;11.60;99.90;;;;;;5012020;28;20197;-79
2022/11/26 12:43:28;;;;;;;20.80;3.63;;;11.60;99.90;;;;;;5011412;28;20235;-78
2022/11/26 12:45:57;;;;;;;8.10;3.17;;;11.60;99.90;;;;;;4993655;28;20247;-78
2022/11/26 12:48:26;;;;;;;7.25;3.80;;;11.60;99.90;;;;;;5011987;28;20168;-79
2022/11/26 12:51:21;;;;;;;15.60;3.58;;;11.80;99.90;;;;;;5011669;28;20275;-79
2022/11/26 12:53:50;;;;;;;10.98;3.50;;;11.90;99.90;;;;;;4994225;28;20290;-78
2022/11/26 12:56:43;;;;;;;16.95;3.53;;;12.10;99.90;;;;;;5012097;28;20208;-79
2022/11/26 12:59:26;;;;;;;12.27;3.72;;;12.00;99.90;;;;;;5012266;28;20200;-79
2022/11/26 13:01:54;;;;;;;14.55;3.67;;;12.00;99.90;;;;;;4997534;28;20542;-78
2022/11/26 13:04:22;;;;;;;19.35;3.40;;;12.10;99.90;;;;;;5011805;28;20180;-80
2022/11/26 13:07:06;;;;;;;10.95;2.53;;;12.20;99.90;;;;;;4994244;28;20161;-79